createdAt,value
2017-09-14T00:00:43.728Z,70.43
2017-09-14T00:01:53.765Z,70.23
2017-09-14T00:03:04.112Z,69.95
2017-09-14T00:04:14.130Z,69.95
2017-09-14T00:05:24.473Z,70.23
2017-09-14T00:06:34.501Z,69.95
2017-09-14T00:07:44.850Z,69.95
2017-09-14T00:08:54.875Z,70.04
2017-09-14T00:10:04.897Z,70.14
2017-09-14T00:11:15.299Z,70.2
2017-09-14T00:12:25.321Z,70.23
2017-09-14T00:13:35.343Z,70.39
2017-09-14T00:14:45.700Z,70.1
2017-09-14T00:15:56.046Z,70.2
2017-09-14T00:17:06.063Z,69.91
2017-09-14T00:18:16.415Z,70.01
2017-09-14T00:19:26.428Z,69.91
2017-09-14T00:20:36.468Z,70.1
2017-09-14T00:21:46.799Z,70.1
2017-09-14T00:22:57.140Z,69.81
2017-09-14T00:24:07.155Z,69.91
2017-09-14T00:25:17.501Z,70.04
2017-09-14T00:26:27.537Z,69.62
2017-09-14T00:27:37.573Z,70.04
2017-09-14T00:28:47.962Z,69.91
2017-09-14T00:29:58.312Z,69.85
2017-09-14T00:31:08.660Z,69.85
2017-09-14T00:32:20.945Z,70.04
2017-09-14T00:33:30.652Z,69.95
2017-09-14T00:34:41.010Z,69.81
2017-09-14T00:35:51.353Z,70.04
2017-09-14T00:37:01.369Z,70.04
2017-09-14T00:38:11.707Z,69.95
2017-09-14T00:39:22.047Z,70.01
2017-09-14T00:40:32.395Z,70.2
2017-09-14T00:41:42.738Z,70.01
2017-09-14T00:42:54.393Z,69.91
2017-09-14T00:44:04.748Z,70.39
2017-09-14T00:45:14.779Z,70.2
2017-09-14T00:46:25.157Z,70.2
2017-09-14T00:47:35.195Z,70.01
2017-09-14T00:48:45.236Z,70.01
2017-09-14T00:49:55.598Z,70.2
2017-09-14T00:51:05.641Z,70.01
2017-09-14T00:52:16.042Z,69.72
2017-09-14T00:53:26.092Z,69.62
2017-09-14T00:54:36.436Z,69.85
2017-09-14T00:55:46.458Z,69.85
2017-09-14T00:56:56.483Z,69.81
2017-09-14T00:58:07.508Z,69.85
2017-09-14T00:59:17.854Z,69.91
2017-09-14T01:00:27.880Z,69.95
2017-09-14T01:01:38.222Z,69.91
2017-09-14T01:02:48.548Z,69.91
2017-09-14T01:03:57.984Z,70.2
2017-09-14T01:05:08.008Z,70.01
2017-09-14T01:06:18.352Z,70.01
2017-09-14T01:07:28.682Z,70.01
2017-09-14T01:08:39.022Z,70.2
2017-09-14T01:09:49.044Z,69.91
2017-09-14T01:10:59.397Z,70.39
2017-09-14T01:12:09.756Z,70.26
2017-09-14T01:13:20.108Z,70.36
2017-09-14T01:14:29.820Z,70.26
2017-09-14T01:15:39.896Z,70.26
2017-09-14T01:16:49.920Z,70.17
2017-09-14T01:18:00.295Z,70.36
2017-09-14T01:19:10.632Z,70.17
2017-09-14T01:20:20.974Z,70.36
2017-09-14T01:21:31.315Z,70.17
2017-09-14T01:22:44.462Z,69.97
2017-09-14T01:23:54.824Z,69.97
2017-09-14T01:25:05.174Z,70.17
2017-09-14T01:26:15.208Z,70.17
2017-09-14T01:27:25.591Z,70.07
2017-09-14T01:28:35.922Z,69.97
2017-09-14T01:29:45.943Z,69.87
2017-09-14T01:30:56.286Z,70.17
2017-09-14T01:32:06.617Z,70.17
2017-09-14T01:33:17.004Z,70.36
2017-09-14T01:34:26.715Z,70.36
2017-09-14T01:35:36.756Z,69.93
2017-09-14T01:36:46.465Z,70.03
2017-09-14T01:37:56.811Z,70.32
2017-09-14T01:39:07.196Z,70.32
2017-09-14T01:40:16.899Z,70.13
2017-09-14T01:41:29.672Z,70.13
2017-09-14T01:42:40.026Z,69.84
2017-09-14T01:43:50.384Z,69.84
2017-09-14T01:45:00.777Z,69.93
2017-09-14T01:46:11.122Z,69.93
2017-09-14T01:47:21.146Z,69.84
2017-09-14T01:48:35.486Z,69.74
2017-09-14T01:49:48.530Z,70.09
2017-09-14T01:50:58.240Z,70.13
2017-09-14T01:52:08.583Z,69.93
2017-09-14T01:53:18.918Z,69.84
2017-09-14T01:54:29.265Z,69.93
2017-09-14T01:55:39.286Z,69.93
2017-09-14T01:56:49.693Z,69.93
2017-09-14T01:57:59.707Z,69.93
2017-09-14T01:59:09.736Z,69.74
2017-09-14T02:00:19.784Z,69.93
2017-09-14T02:01:29.835Z,69.52
2017-09-14T02:02:40.227Z,69.52
2017-09-14T02:03:50.239Z,69.84
2017-09-14T02:05:00.568Z,69.71
2017-09-14T02:06:11.663Z,69.52
2017-09-14T02:07:21.997Z,69.52
2017-09-14T02:08:32.091Z,69.71
2017-09-14T02:09:42.121Z,69.52
2017-09-14T02:10:52.461Z,69.81
2017-09-14T02:12:02.483Z,69.9
2017-09-14T02:13:12.514Z,69.93
2017-09-14T02:14:22.916Z,69.81
2017-09-14T02:15:33.273Z,69.81
2017-09-14T02:16:43.619Z,69.81
2017-09-14T02:17:53.976Z,69.71
2017-09-14T02:19:03.984Z,69.71
2017-09-14T02:20:14.684Z,69.42
2017-09-14T02:21:25.027Z,69.52
2017-09-14T02:22:35.377Z,69.62
2017-09-14T02:23:45.727Z,69.52
2017-09-14T02:24:56.061Z,69.52
2017-09-14T02:26:06.133Z,69.81
2017-09-14T02:27:16.467Z,69.62
2017-09-14T02:28:26.801Z,69.52
2017-09-14T02:29:36.820Z,69.62
2017-09-14T02:30:46.829Z,69.71
2017-09-14T02:31:57.178Z,69.52
2017-09-14T02:33:07.523Z,69.52
2017-09-14T02:34:17.861Z,69.71
2017-09-14T02:35:27.897Z,69.52
2017-09-14T02:36:38.236Z,69.81
2017-09-14T02:37:48.577Z,69.62
2017-09-14T02:38:58.603Z,69.81
2017-09-14T02:40:08.951Z,69.9
2017-09-14T02:41:19.293Z,69.71
2017-09-14T02:42:29.651Z,69.9
2017-09-14T02:43:40.040Z,69.71
2017-09-14T02:44:52.436Z,69.9
2017-09-14T02:46:02.454Z,69.9
2017-09-14T02:47:12.821Z,69.9
2017-09-14T02:48:23.222Z,69.81
2017-09-14T02:49:33.295Z,69.52
2017-09-14T02:50:43.676Z,70
2017-09-14T02:51:54.024Z,69.9
2017-09-14T02:53:04.042Z,69.81
2017-09-14T02:54:14.378Z,69.71
2017-09-14T02:55:24.714Z,70
2017-09-14T02:56:34.744Z,70
2017-09-14T02:57:44.771Z,70.15
2017-09-14T02:58:55.109Z,69.77
2017-09-14T03:00:05.136Z,69.87
2017-09-14T03:01:15.527Z,69.77
2017-09-14T03:33:31.236Z,67.08
2017-09-14T03:34:41.567Z,67.84
2017-09-14T03:35:51.578Z,68.51
2017-09-14T03:37:01.586Z,69.27
2017-09-14T03:38:11.917Z,69.76
2017-09-14T03:39:22.012Z,69.76
2017-09-14T03:40:32.358Z,70.14
2017-09-14T03:41:42.738Z,70.71
2017-09-14T03:42:53.060Z,70.36
2017-09-14T03:44:03.417Z,70.46
2017-09-14T03:45:13.809Z,70.46
2017-09-14T03:46:24.130Z,70.56
2017-09-14T03:47:36.726Z,70.65
2017-09-14T03:48:47.122Z,70.21
2017-09-14T03:49:57.455Z,70.21
2017-09-14T03:51:07.472Z,70.4
2017-09-14T03:52:17.813Z,70.78
2017-09-14T03:53:28.165Z,70.34
2017-09-14T03:54:38.194Z,70.34
2017-09-14T03:55:48.539Z,70.43
2017-09-14T03:56:57.976Z,70.24
2017-09-14T03:58:08.304Z,70.05
2017-09-14T03:59:18.644Z,70.15
2017-09-14T04:00:28.982Z,70.15
2017-09-14T04:01:39.329Z,69.95
2017-09-14T04:02:49.725Z,69.57
2017-09-14T04:04:00.065Z,69.8
2017-09-14T04:05:10.087Z,69.8
2017-09-14T04:06:19.789Z,69.89
2017-09-14T04:07:29.796Z,70.18
2017-09-14T04:08:40.194Z,69.89
2017-09-14T04:09:50.205Z,70.28
2017-09-14T04:11:00.537Z,69.89
2017-09-14T04:12:10.914Z,69.89
2017-09-14T04:13:21.258Z,70.31
2017-09-14T04:14:31.641Z,69.83
2017-09-14T04:15:42.024Z,69.89
2017-09-14T04:16:52.346Z,69.83
2017-09-14T04:18:02.382Z,69.83
2017-09-14T04:19:12.410Z,69.83
2017-09-14T04:20:22.756Z,70.03
2017-09-14T04:21:33.080Z,70.03
2017-09-14T04:22:43.435Z,69.83
2017-09-14T04:23:53.774Z,70.03
2017-09-14T04:25:04.111Z,70.03
2017-09-14T04:26:14.515Z,69.83
2017-09-14T04:27:24.862Z,69.83
2017-09-14T04:28:34.891Z,69.93
2017-09-14T04:29:45.230Z,69.83
2017-09-14T04:30:55.590Z,69.83
2017-09-14T04:32:05.684Z,69.74
2017-09-14T04:33:15.700Z,69.74
2017-09-14T04:34:26.251Z,69.74
2017-09-14T04:35:36.278Z,69.74
2017-09-14T04:36:46.308Z,70.03
2017-09-14T04:37:57.552Z,69.74
2017-09-14T04:39:09.740Z,69.74
2017-09-14T04:40:20.082Z,69.64
2017-09-14T04:41:30.451Z,69.45
2017-09-14T04:42:40.795Z,69.54
2017-09-14T04:43:51.186Z,68.87
2017-09-14T04:45:01.533Z,68.62
2017-09-14T04:46:12.001Z,68.27
2017-09-14T04:47:22.077Z,68.46
2017-09-14T04:48:32.430Z,68.52
2017-09-14T04:49:42.513Z,69.39
2017-09-14T04:50:52.857Z,69.01
2017-09-14T04:52:02.569Z,69.87
2017-09-14T04:53:12.911Z,69.01
2017-09-14T04:54:22.627Z,68.91
2017-09-14T04:55:33.011Z,69.2
2017-09-14T04:56:43.342Z,68.81
2017-09-14T04:57:53.358Z,69.87
2017-09-14T04:59:03.704Z,69.68
2017-09-14T05:00:14.051Z,69.1
2017-09-14T05:01:24.130Z,69.1
2017-09-14T05:02:34.151Z,69.2
2017-09-14T05:03:44.192Z,69.87
2017-09-14T05:04:54.224Z,69.01
2017-09-14T05:06:03.945Z,69.48
2017-09-14T05:07:14.337Z,69.68
2017-09-14T05:08:24.699Z,69.48
2017-09-14T05:09:35.058Z,69.87
2017-09-14T05:10:45.413Z,69.58
2017-09-14T05:11:55.755Z,69.39
2017-09-14T05:13:05.827Z,69.2
2017-09-14T05:14:16.173Z,69.2
2017-09-14T05:15:26.195Z,69.62
2017-09-14T05:16:36.241Z,69.42
2017-09-14T05:17:46.577Z,69.2
2017-09-14T05:18:56.975Z,69.23
2017-09-14T05:20:07.332Z,69.33
2017-09-14T05:21:17.715Z,69.33
2017-09-14T05:22:28.320Z,69.13
2017-09-14T05:23:38.342Z,69.13
2017-09-14T05:24:48.725Z,69.13
2017-09-14T05:25:59.070Z,69.13
2017-09-14T05:27:09.431Z,69.13
2017-09-14T05:28:19.774Z,69.23
2017-09-14T05:29:30.120Z,69.33
2017-09-14T05:30:40.451Z,69.04
2017-09-14T05:31:50.465Z,69.33
2017-09-14T05:33:00.493Z,69.33
2017-09-14T05:34:10.207Z,69.23
2017-09-14T05:35:20.251Z,69.13
2017-09-14T05:36:30.650Z,69.23
2017-09-14T05:37:40.672Z,69.46
2017-09-14T05:38:51.036Z,69.07
2017-09-14T05:40:01.386Z,69.46
2017-09-14T05:41:11.756Z,69.36
2017-09-14T05:42:22.149Z,69.46
2017-09-14T05:43:32.485Z,69.65
2017-09-14T05:44:42.829Z,69.36
2017-09-14T05:45:52.865Z,69.26
2017-09-14T05:47:02.910Z,69.36
2017-09-14T05:48:15.348Z,69.46
2017-09-14T05:49:25.691Z,69.65
2017-09-14T05:50:36.024Z,69.2
2017-09-14T05:51:46.364Z,69.49
2017-09-14T05:52:56.746Z,69.36
2017-09-14T05:54:07.134Z,69.59
2017-09-14T05:55:17.482Z,69.46
2017-09-14T05:56:28.032Z,69.2
2017-09-14T05:57:38.388Z,69.68
2017-09-14T05:58:48.736Z,69.49
2017-09-14T05:59:59.091Z,69.4
2017-09-14T06:01:09.118Z,69.3
2017-09-14T06:02:19.135Z,69.68
2017-09-14T06:03:29.491Z,69.2
2017-09-14T06:04:39.835Z,69.68
2017-09-14T06:05:50.212Z,69.68
2017-09-14T06:07:00.542Z,69.4
2017-09-14T06:08:10.878Z,69.59
2017-09-14T06:09:21.222Z,69.49
2017-09-14T06:10:31.562Z,69.2
2017-09-14T06:11:41.959Z,69.11
2017-09-14T06:12:52.337Z,69.49
2017-09-14T06:14:02.684Z,69.72
2017-09-14T06:15:13.024Z,69.72
2017-09-14T06:16:23.363Z,69.43
2017-09-14T06:17:33.762Z,69.05
2017-09-14T06:18:43.804Z,69.05
2017-09-14T06:19:54.147Z,69.14
2017-09-14T06:21:04.738Z,69.05
2017-09-14T06:22:15.090Z,69.05
2017-09-14T06:23:24.816Z,69.05
2017-09-14T06:24:35.193Z,69.05
2017-09-14T06:25:45.225Z,69.18
2017-09-14T06:26:55.263Z,69.05
2017-09-14T06:28:05.601Z,69.08
2017-09-14T06:29:16.142Z,68.6
2017-09-14T06:30:26.154Z,68.6
2017-09-14T06:31:36.488Z,68.41
2017-09-14T06:32:46.533Z,68.89
2017-09-14T06:33:56.874Z,68.41
2017-09-14T06:35:07.271Z,68.79
2017-09-14T06:36:17.292Z,68.98
2017-09-14T06:37:27.620Z,68.79
2017-09-14T06:38:37.947Z,69.02
2017-09-14T06:39:47.961Z,68.83
2017-09-14T06:40:58.040Z,68.73
2017-09-14T06:42:08.376Z,68.73
2017-09-14T06:43:18.731Z,68.83
2017-09-14T06:44:29.059Z,68.83
2017-09-14T06:45:38.770Z,68.83
2017-09-14T06:46:49.163Z,69.02
2017-09-14T06:47:59.188Z,68.86
2017-09-14T06:49:09.225Z,68.76
2017-09-14T06:50:19.572Z,69.06
2017-09-14T06:51:33.715Z,68.96
2017-09-14T06:52:43.746Z,68.96
2017-09-14T06:53:54.090Z,68.86
2017-09-14T06:55:04.118Z,68.76
2017-09-14T06:56:14.497Z,68.67
2017-09-14T06:57:25.822Z,68.86
2017-09-14T06:58:36.159Z,68.86
2017-09-14T06:59:46.192Z,68.99
2017-09-14T07:00:56.540Z,68.9
2017-09-14T07:02:06.899Z,68.8
2017-09-14T07:03:17.234Z,68.9
2017-09-14T07:04:27.634Z,68.9
2017-09-14T07:05:37.991Z,68.7
2017-09-14T07:06:48.340Z,69.09
2017-09-14T07:07:58.364Z,69.12
2017-09-14T07:09:08.387Z,69.12
2017-09-14T07:10:18.790Z,69.22
2017-09-14T07:11:28.505Z,68.64
2017-09-14T07:12:38.856Z,68.84
2017-09-14T07:13:48.883Z,68.93
2017-09-14T07:14:59.223Z,69.02
2017-09-14T07:16:09.623Z,69.02
2017-09-14T07:17:19.643Z,68.84
2017-09-14T07:18:29.985Z,68.74
2017-09-14T07:19:40.339Z,68.77
2017-09-14T07:20:50.670Z,69.15
2017-09-14T07:22:01.082Z,69.25
2017-09-14T07:23:11.109Z,68.87
2017-09-14T07:24:21.445Z,69.25
2017-09-14T07:25:31.471Z,68.96
2017-09-14T07:26:41.182Z,69.15
2017-09-14T07:27:51.576Z,68.96
2017-09-14T07:29:01.930Z,68.96
2017-09-14T07:30:12.287Z,68.99
2017-09-14T07:31:22.329Z,68.99
2017-09-14T07:32:35.596Z,69.29
2017-09-14T07:33:45.933Z,68.99
2017-09-14T07:34:56.273Z,68.99
2017-09-14T07:36:06.608Z,69.09
2017-09-14T07:37:19.698Z,69.09
2017-09-14T07:38:29.867Z,69.09
2017-09-14T07:39:39.942Z,68.8
2017-09-14T07:40:50.290Z,68.8
2017-09-14T07:42:00.642Z,68.84
2017-09-14T07:43:12.602Z,69.03
2017-09-14T07:44:22.624Z,69.03
2017-09-14T07:45:33.021Z,69.13
2017-09-14T07:46:43.380Z,69.32
2017-09-14T07:47:53.417Z,68.93
2017-09-14T07:49:03.247Z,69.23
2017-09-14T07:50:13.330Z,69.03
2017-09-14T07:51:23.675Z,69.03
2017-09-14T07:52:33.701Z,69.07
2017-09-14T07:53:44.058Z,68.87
2017-09-14T07:54:54.436Z,68.68
2017-09-14T07:56:04.795Z,68.77
2017-09-14T07:57:14.891Z,68.68
2017-09-14T07:58:25.348Z,68.77
2017-09-14T07:59:35.701Z,68.68
2017-09-14T08:00:46.063Z,68.71
2017-09-14T08:01:56.437Z,68.52
2017-09-14T08:03:06.542Z,68.91
2017-09-14T08:04:16.602Z,68.81
2017-09-14T08:05:26.965Z,68.81
2017-09-14T08:06:37.340Z,68.81
2017-09-14T08:07:47.410Z,68.81
2017-09-14T08:08:57.854Z,68.81
2017-09-14T08:10:08.246Z,68.81
2017-09-14T08:11:18.642Z,68.81
2017-09-14T08:12:30.014Z,68.75
2017-09-14T08:13:40.379Z,68.84
2017-09-14T08:14:50.804Z,68.84
2017-09-14T08:16:00.863Z,68.65
2017-09-14T08:17:11.244Z,69.23
2017-09-14T08:18:20.952Z,69.17
2017-09-14T08:19:30.998Z,69.26
2017-09-14T08:20:41.405Z,68.88
2017-09-14T08:21:51.442Z,68.78
2017-09-14T08:23:01.787Z,68.49
2017-09-14T08:24:12.153Z,68.88
2017-09-14T08:25:22.526Z,68.88
2017-09-14T08:26:32.926Z,68.98
2017-09-14T08:27:43.276Z,68.78
2017-09-14T08:28:53.646Z,69.3
2017-09-14T08:30:03.993Z,69.3
2017-09-14T08:31:14.350Z,68.82
2017-09-14T08:32:24.727Z,68.91
2017-09-14T08:33:35.071Z,69.01
2017-09-14T08:34:45.427Z,69.01
2017-09-14T08:35:55.785Z,69.04
2017-09-14T08:37:06.139Z,68.66
2017-09-14T08:38:16.230Z,68.95
2017-09-14T08:39:26.584Z,68.56
2017-09-14T08:40:36.311Z,68.66
2017-09-14T08:41:46.691Z,68.56
2017-09-14T08:42:57.072Z,68.66
2017-09-14T08:44:07.448Z,68.21
2017-09-14T08:45:19.110Z,68.37
2017-09-14T08:46:29.459Z,68.3
2017-09-14T08:47:39.840Z,68.4
2017-09-14T08:48:50.185Z,68.49
2017-09-14T08:50:00.527Z,68.4
2017-09-14T08:51:10.895Z,68.4
2017-09-14T08:52:20.941Z,68.49
2017-09-14T08:53:31.312Z,68.4
2017-09-14T08:54:41.662Z,68.49
2017-09-14T08:55:51.774Z,68.3
2017-09-14T08:57:01.804Z,68.49
2017-09-14T08:58:12.157Z,68.4
2017-09-14T08:59:22.511Z,68.49
2017-09-14T09:00:32.880Z,68.43
2017-09-14T09:01:43.281Z,68.43
2017-09-14T09:02:55.980Z,68.53
2017-09-14T09:04:06.025Z,68.82
2017-09-14T09:05:16.396Z,68.53
2017-09-14T09:06:26.970Z,68.91
2017-09-14T09:07:37.056Z,68.63
2017-09-14T09:08:47.129Z,68.73
2017-09-14T09:09:57.470Z,68.63
2017-09-14T09:11:07.860Z,68.15
2017-09-14T09:12:18.223Z,68.76
2017-09-14T09:13:28.639Z,67.98
2017-09-14T09:14:38.993Z,67.98
2017-09-14T09:15:49.023Z,68.18
2017-09-14T09:16:59.061Z,68.37
2017-09-14T09:18:09.425Z,68.18
2017-09-14T09:19:19.818Z,67.72
2017-09-14T09:20:30.175Z,68.02
2017-09-14T09:21:40.519Z,68.3
2017-09-14T09:22:50.873Z,68.21
2017-09-14T09:24:01.227Z,67.92
2017-09-14T09:25:14.192Z,68.02
2017-09-14T09:26:26.774Z,68.3
2017-09-14T09:27:37.114Z,68.24
2017-09-14T09:28:47.467Z,68.24
2017-09-14T09:29:57.709Z,68.05
2017-09-14T09:31:08.111Z,68.05
2017-09-14T09:32:17.828Z,68.44
2017-09-14T09:33:31.210Z,68.05
2017-09-14T09:34:41.242Z,68.44
2017-09-14T09:35:51.278Z,68.24
2017-09-14T09:37:01.674Z,68.28
2017-09-14T09:38:12.021Z,68.28
2017-09-14T09:39:22.430Z,68.18
2017-09-14T09:40:32.869Z,68.08
2017-09-14T09:41:43.251Z,68.28
2017-09-14T09:42:53.708Z,67.73
2017-09-14T09:44:04.107Z,68.02
2017-09-14T09:45:13.911Z,68.02
2017-09-14T09:46:24.320Z,67.92
2017-09-14T09:47:34.758Z,67.92
2017-09-14T09:48:45.153Z,68.89
2017-09-14T09:49:55.194Z,68.83
2017-09-14T09:51:07.444Z,68.15
2017-09-14T09:52:17.803Z,68.35
2017-09-14T09:53:27.833Z,68.25
2017-09-14T09:54:37.950Z,68.93
2017-09-14T09:55:48.005Z,67.96
2017-09-14T09:57:00.811Z,68.77
2017-09-14T09:58:10.861Z,68.77
2017-09-14T09:59:20.918Z,67.8
2017-09-14T10:00:31.032Z,67.8
2017-09-14T10:01:41.077Z,68.9
2017-09-14T10:02:51.479Z,68.51
2017-09-14T10:04:01.831Z,68.32
2017-09-14T10:05:11.896Z,68.9
2017-09-14T10:06:22.299Z,68.22
2017-09-14T10:07:32.641Z,68.02
2017-09-14T10:08:43.789Z,68.51
2017-09-14T10:09:56.382Z,68.41
2017-09-14T10:11:06.788Z,68.32
2017-09-14T10:12:17.498Z,68.41
2017-09-14T10:13:29.533Z,68.9
2017-09-14T10:14:40.020Z,68.22
2017-09-14T10:15:50.382Z,68.9
2017-09-14T10:17:00.796Z,68.15
2017-09-14T10:18:10.903Z,68.35
2017-09-14T10:19:22.325Z,68.15
2017-09-14T10:20:32.733Z,67.86
2017-09-14T10:21:42.825Z,68.05
2017-09-14T10:22:53.206Z,68.96
2017-09-14T10:24:03.590Z,67.96
2017-09-14T10:25:13.650Z,68.38
2017-09-14T10:26:23.680Z,68.29
2017-09-14T10:27:34.112Z,68.19
2017-09-14T10:28:44.462Z,68.29
2017-09-14T10:29:54.564Z,68.22
2017-09-14T10:31:04.663Z,68.02
2017-09-14T10:32:14.711Z,68.61
2017-09-14T10:33:25.103Z,68.02
2017-09-14T10:34:35.481Z,68.32
2017-09-14T10:35:45.569Z,68.02
2017-09-14T10:36:55.652Z,68.02
2017-09-14T10:38:05.802Z,68.51
2017-09-14T10:39:16.143Z,68.51
2017-09-14T10:40:26.741Z,68.51
2017-09-14T10:41:37.099Z,68.12
2017-09-14T10:42:46.878Z,68.55
2017-09-14T10:43:57.303Z,68.61
2017-09-14T10:45:07.681Z,68.55
2017-09-14T10:46:18.029Z,68.02
2017-09-14T10:47:28.116Z,68.35
2017-09-14T10:48:38.226Z,68.45
2017-09-14T10:49:48.652Z,68.16
2017-09-14T10:50:58.728Z,68.19
2017-09-14T10:52:09.078Z,68.35
2017-09-14T10:53:19.451Z,68.06
2017-09-14T10:54:29.524Z,68.38
2017-09-14T10:55:39.251Z,68.38
2017-09-14T10:56:49.693Z,68.38
2017-09-14T10:58:00.042Z,68.29
2017-09-14T10:59:13.074Z,68.58
2017-09-14T11:00:23.514Z,68.38
2017-09-14T11:01:33.923Z,68.48
2017-09-14T11:02:44.646Z,68.19
2017-09-14T11:03:54.375Z,68.52
2017-09-14T11:05:04.815Z,68.52
2017-09-14T11:06:15.175Z,68.52
2017-09-14T11:07:25.204Z,68.13
2017-09-14T11:08:35.547Z,68.42
2017-09-14T11:09:45.900Z,68.65
2017-09-14T11:10:56.057Z,68.35
2017-09-14T11:12:06.446Z,68.84
2017-09-14T11:13:16.500Z,68.55
2017-09-14T11:14:46.481Z,68.55
2017-09-14T11:15:56.837Z,68.84
2017-09-14T11:17:06.281Z,68.65
2017-09-14T11:18:16.644Z,68.68
2017-09-14T11:19:26.703Z,68.77
2017-09-14T11:20:37.065Z,68.49
2017-09-14T11:21:47.185Z,68.59
2017-09-14T11:22:58.901Z,68.49
2017-09-14T11:24:09.272Z,68.68
2017-09-14T11:25:19.321Z,68.19
2017-09-14T11:26:29.676Z,68.52
2017-09-14T11:27:39.719Z,68.52
2017-09-14T11:28:50.078Z,68.52
2017-09-14T11:30:00.913Z,68.71
2017-09-14T11:31:11.272Z,68.42
2017-09-14T11:32:21.649Z,68.32
2017-09-14T11:33:32.066Z,68.32
2017-09-14T11:34:42.089Z,68.32
2017-09-14T11:35:52.480Z,68.23
2017-09-14T11:37:02.857Z,68.26
2017-09-14T11:38:13.233Z,68.55
2017-09-14T11:39:23.327Z,68.46
2017-09-14T11:40:33.384Z,68.55
2017-09-14T11:41:43.439Z,68.55
2017-09-14T11:42:53.486Z,68.46
2017-09-14T11:44:03.849Z,68.68
2017-09-14T11:45:14.264Z,68.59
2017-09-14T11:46:27.472Z,68.65
2017-09-14T11:47:37.823Z,68.59
2017-09-14T11:48:48.509Z,68.1
2017-09-14T11:49:59.224Z,68.42
2017-09-14T11:51:09.629Z,68.42
2017-09-14T11:52:19.990Z,68.42
2017-09-14T11:53:30.352Z,68.32
2017-09-14T11:54:40.713Z,68.42
2017-09-14T11:55:51.075Z,68.32
2017-09-14T11:57:01.593Z,68.62
2017-09-14T11:58:11.620Z,68.62
2017-09-14T11:59:21.982Z,68.62
2017-09-14T12:00:32.355Z,68.82
2017-09-14T12:01:42.717Z,68.52
2017-09-14T12:02:53.147Z,68.32
2017-09-14T12:04:03.497Z,68.42
2017-09-14T12:05:13.548Z,68.62
2017-09-14T12:06:23.921Z,68.62
2017-09-14T12:07:34.301Z,68.62
2017-09-14T12:08:44.729Z,68.65
2017-09-14T12:09:55.105Z,68.26
2017-09-14T12:11:05.459Z,68.55
2017-09-14T12:12:15.523Z,68.46
2017-09-14T12:13:26.430Z,68.36
2017-09-14T12:14:36.516Z,68.36
2017-09-14T12:15:46.874Z,68.46
2017-09-14T12:16:56.608Z,68.39
2017-09-14T12:18:06.980Z,68.1
2017-09-14T12:19:17.046Z,68.49
2017-09-14T12:20:27.452Z,68.49
2017-09-14T12:21:37.815Z,68.29
2017-09-14T12:22:48.171Z,68.29
2017-09-14T12:24:00.984Z,68.39
2017-09-14T12:25:11.356Z,68.1
2017-09-14T12:26:21.802Z,68.59
2017-09-14T12:27:32.189Z,68.88
2017-09-14T12:28:42.567Z,68.68
2017-09-14T12:29:52.939Z,68.78
2017-09-14T12:31:03.321Z,68.68
2017-09-14T12:32:14.585Z,68.78
2017-09-14T12:33:25.303Z,68.78
2017-09-14T12:34:35.666Z,68.68
2017-09-14T12:35:46.940Z,68.39
2017-09-14T12:36:56.986Z,68.68
2017-09-14T12:38:07.412Z,68.78
2017-09-14T12:39:17.795Z,68.78
2017-09-14T12:40:27.827Z,68.78
2017-09-14T12:41:37.878Z,68.68
2017-09-14T12:42:47.931Z,68.68
2017-09-14T12:43:58.369Z,68.68
2017-09-14T12:45:08.094Z,68.59
2017-09-14T12:46:18.263Z,68.78
2017-09-14T12:47:28.638Z,68.68
2017-09-14T12:48:38.873Z,68.68
2017-09-14T12:49:48.979Z,68.49
2017-09-14T12:50:59.354Z,68.59
2017-09-14T12:52:09.085Z,68.49
2017-09-14T12:53:19.196Z,68.98
2017-09-14T12:54:32.071Z,68.68
2017-09-14T12:55:43.326Z,68.98
2017-09-14T12:56:53.366Z,68.78
2017-09-14T12:58:03.729Z,68.59
2017-09-14T12:59:13.784Z,68.59
2017-09-14T13:00:24.157Z,68.59
2017-09-14T13:01:34.529Z,68.98
2017-09-14T13:02:44.917Z,68.88
2017-09-14T13:03:55.958Z,68.98
2017-09-14T13:05:05.676Z,68.78
2017-09-14T13:06:16.032Z,68.68
2017-09-14T13:07:26.525Z,68.98
2017-09-14T13:08:37.790Z,68.88
2017-09-14T13:09:50.036Z,68.59
2017-09-14T13:11:00.449Z,68.39
2017-09-14T13:12:10.829Z,68.55
2017-09-14T13:13:21.244Z,68.36
2017-09-14T13:14:31.293Z,68.55
2017-09-14T13:15:41.341Z,68.55
2017-09-14T13:16:51.704Z,68.65
2017-09-14T13:18:01.764Z,68.65
2017-09-14T13:19:12.218Z,68.65
2017-09-14T13:20:22.591Z,68.65
2017-09-14T13:21:32.627Z,68.26
2017-09-14T13:22:42.698Z,68.85
2017-09-14T13:23:53.074Z,68.55
2017-09-14T13:25:03.437Z,68.75
2017-09-14T13:26:13.503Z,68.49
2017-09-14T13:27:23.875Z,68.36
2017-09-14T13:28:36.846Z,68.68
2017-09-14T13:29:47.217Z,68.78
2017-09-14T13:30:57.629Z,68.68
2017-09-14T13:32:07.682Z,68.39
2017-09-14T13:33:17.764Z,69.08
2017-09-14T13:34:27.826Z,68.88
2017-09-14T13:35:37.587Z,68.39
2017-09-14T13:36:48.003Z,68.49
2017-09-14T13:37:58.376Z,68.49
2017-09-14T13:39:08.749Z,68.49
2017-09-14T13:40:18.799Z,68.39
2017-09-14T13:41:28.835Z,68.85
2017-09-14T13:42:38.913Z,68.88
2017-09-14T13:43:48.665Z,68.46
2017-09-14T13:44:58.707Z,68.65
2017-09-14T13:46:08.746Z,68.65
2017-09-14T13:47:18.473Z,68.59
2017-09-14T13:48:28.835Z,68.59
2017-09-14T13:49:39.229Z,68.65
2017-09-14T13:50:49.581Z,68.88
2017-09-14T13:51:59.653Z,68.59
2017-09-14T13:53:09.680Z,68.88
2017-09-14T13:54:20.207Z,68.59
2017-09-14T13:55:30.250Z,68.59
2017-09-14T13:56:40.654Z,68.59
2017-09-14T13:57:50.700Z,69.34
2017-09-14T13:59:00.448Z,69.24
2017-09-14T14:00:11.044Z,69.04
2017-09-14T14:01:21.415Z,69.04
2017-09-14T14:02:31.783Z,69.11
2017-09-14T14:03:43.044Z,69.11
2017-09-14T14:04:53.081Z,68.91
2017-09-14T14:06:03.485Z,69.21
2017-09-14T14:07:13.861Z,69.11
2017-09-14T14:08:24.225Z,69.07
2017-09-14T14:09:34.627Z,69.07
2017-09-14T14:10:44.983Z,69.27
2017-09-14T14:11:55.069Z,69.85
2017-09-14T14:13:05.474Z,69.92
2017-09-14T14:14:15.505Z,69.63
2017-09-14T14:15:25.875Z,70.02
2017-09-14T14:16:35.596Z,69.73
2017-09-14T14:17:45.995Z,69.49
2017-09-14T14:18:56.044Z,70.76
2017-09-14T14:20:06.403Z,70.73
2017-09-14T14:21:15.804Z,70.43
2017-09-14T14:22:26.160Z,70.21
2017-09-14T14:23:36.599Z,70.7
2017-09-14T14:24:46.968Z,70.37
2017-09-14T14:25:57.354Z,70.6
2017-09-14T14:27:07.391Z,69.88
2017-09-14T14:28:17.759Z,69.72
2017-09-14T14:29:30.637Z,69.2
2017-09-14T14:30:40.694Z,69.88
2017-09-14T14:31:51.055Z,69.2
2017-09-14T14:33:01.408Z,68.8
2017-09-14T14:34:11.788Z,69.26
2017-09-14T14:35:22.609Z,68.68
2017-09-14T14:36:34.958Z,69.36
2017-09-14T14:37:45.315Z,69.58
2017-09-14T14:38:54.740Z,70.04
2017-09-14T14:40:05.099Z,70.45
2017-09-14T14:41:15.520Z,70.94
2017-09-14T14:42:25.570Z,70.97
2017-09-14T14:43:34.976Z,71.12
2017-09-14T14:44:45.026Z,71.67
2017-09-14T14:45:54.755Z,71.25
2017-09-14T14:47:05.154Z,71.34
2017-09-14T14:48:14.914Z,70.83
2017-09-14T14:49:25.275Z,70.63
2017-09-14T14:50:35.644Z,69.95
2017-09-14T14:51:46.036Z,70.44
2017-09-14T14:52:56.139Z,70.05
2017-09-14T14:54:06.505Z,70.5
2017-09-14T14:55:16.353Z,70.27
2017-09-14T14:56:26.378Z,70.92
2017-09-14T14:57:36.756Z,70.72
2017-09-14T14:58:47.190Z,70.59
2017-09-14T14:59:57.834Z,70.65
2017-09-14T15:01:11.582Z,70.46
2017-09-14T15:02:23.637Z,70.42
2017-09-14T15:03:33.704Z,70.52
2017-09-14T15:04:44.158Z,70.78
2017-09-14T15:05:54.539Z,70.68
2017-09-14T15:07:04.912Z,70.68
2017-09-14T15:08:16.734Z,70.54
2017-09-14T15:09:27.104Z,70.64
2017-09-14T15:10:37.451Z,70.42
2017-09-14T15:11:47.489Z,70.32
2017-09-14T15:12:57.855Z,70.22
2017-09-14T15:14:08.216Z,70.19
2017-09-14T15:15:18.262Z,70.19
2017-09-14T15:16:28.321Z,70.48
2017-09-14T15:17:38.681Z,70.28
2017-09-14T15:18:49.043Z,69.87
2017-09-14T15:20:00.596Z,69.96
2017-09-14T15:21:10.954Z,70.06
2017-09-14T15:22:21.054Z,69.64
2017-09-14T15:23:31.441Z,69.93
2017-09-14T15:24:41.488Z,69.45
2017-09-14T15:25:51.864Z,70.02
2017-09-14T15:27:02.220Z,69.51
2017-09-14T15:28:12.268Z,69.6
2017-09-14T15:29:22.644Z,69.7
2017-09-14T15:30:32.995Z,69.6
2017-09-14T15:31:43.347Z,69.12
2017-09-14T15:32:53.705Z,68.93
2017-09-14T15:34:03.795Z,69.12
2017-09-14T15:35:13.852Z,68.74
2017-09-14T15:36:24.206Z,68.64
2017-09-14T15:37:34.789Z,68.54
2017-09-14T15:38:48.189Z,68.35
2017-09-14T15:39:58.227Z,68.48
2017-09-14T15:41:08.632Z,68.38